Time;durP1;ratioP1;P1;durP2;ratioP2;P2;SDS_P1;SDS_P2;PMS_P1;PMS_P2;Temp;Humidity;BMP_temperature;BMP_pressure;BME280_temperature;BME280_humidity;BME280_pressure;Samples;Min_cycle;Max_cycle;Signal;HPM_P1;HPM_P2
2021/07/03 03:50:48;;;;;;;36.20;23.45;;;12.60;99.90;;;14.06;100.00;100650.94;6201727;22;20025;-92
2021/07/03 03:53:14;;;;;;;32.03;21.10;;;12.70;99.90;;;14.06;100.00;100639.72;6200289;23;20024;-91
2021/07/03 03:56:46;;;;;;;32.30;21.42;;;12.70;99.90;;;14.07;100.00;100646.16;6224622;23;20096;-92
2021/07/03 08:56:57;;;;;;;;;;;;;;;;;;;;;
2021/07/03 09:18:56;;;;;;;9.85;5.68;;;27.60;70.40;;;31.29;35.17;100542.69;6254205;23;20027;-89
2021/07/03 09:21:22;;;;;;;8.18;6.50;;;28.30;66.80;;;31.64;34.88;100542.63;6251780;23;20008;-89
2021/07/03 09:23:48;;;;;;;10.30;6.53;;;28.60;65.50;;;31.60;35.46;100539.97;6254926;23;20004;-88
2021/07/03 09:26:15;;;;;;;10.43;5.82;;;28.70;66.70;;;31.92;35.63;100534.31;6253174;23;20011;-91
2021/07/03 09:28:45;;;;;;;9.23;6.60;;;28.90;66.40;;;31.66;35.91;100520.59;6260523;23;20031;-90
2021/07/03 09:31:16;;;;;;;9.40;6.82;;;28.70;66.60;;;30.45;38.07;100519.59;6259893;23;20016;-90
2021/07/03 09:33:54;;;;;;;7.82;5.60;;;27.90;68.50;;;29.41;38.94;100523.59;6258046;23;20000;-90
2021/07/03 09:36:31;;;;;;;8.27;6.43;;;27.20;68.20;;;28.87;37.74;100521.06;6253241;23;20015;-89
2021/07/03 09:39:00;;;;;;;8.00;5.68;;;26.90;65.90;;;29.58;36.90;100516.13;6252005;23;20015;-88
2021/07/03 09:41:45;;;;;;;9.65;6.47;;;27.10;65.80;;;30.39;35.42;100516.59;6251831;23;20034;-88
2021/07/03 09:44:11;;;;;;;9.15;6.15;;;27.60;65.00;;;30.79;34.69;100522.53;6251403;23;20015;-89
2021/07/03 09:46:52;;;;;;;8.48;6.75;;;27.90;63.20;;;31.00;35.60;100514.75;6251160;23;20031;-88
2021/07/03 09:49:26;;;;;;;7.45;5.43;;;28.30;64.60;;;31.58;34.40;100507.13;6249660;23;20015;-89
2021/07/03 09:51:59;;;;;;;8.73;5.97;;;28.70;63.30;;;31.40;35.07;100508.22;6252104;23;20004;-88
2021/07/03 09:54:35;;;;;;;7.05;5.63;;;28.90;62.40;;;31.78;34.43;100519.47;6250329;23;20024;-89
2021/07/03 09:57:17;;;;;;;10.75;7.20;;;29.10;62.10;;;31.78;33.84;100512.88;6248632;23;20082;-89
2021/07/03 09:59:46;;;;;;;7.88;6.13;;;29.10;60.50;;;32.11;32.59;100512.47;6249186;23;20038;-89
2021/07/03 10:02:15;;;;;;;8.02;5.78;;;29.30;58.70;;;32.19;33.01;100499.94;6253421;22;20004;-90
2021/07/03 10:04:41;;;;;;;7.95;5.55;;;29.40;59.70;;;31.81;33.64;100497.44;6251540;23;20019;-90
2021/07/03 10:07:17;;;;;;;7.93;6.13;;;29.40;59.50;;;31.83;32.50;100498.50;6260563;23;19996;-88
2021/07/03 10:10:03;;;;;;;8.82;6.38;;;29.40;57.50;;;31.46;33.04;100494.63;6268265;23;20016;-90
2021/07/03 10:13:00;;;;;;;8.10;5.75;;;29.20;57.80;;;31.75;32.77;100508.94;6253565;23;20092;-89
2021/07/03 10:15:35;;;;;;;7.65;5.80;;;29.20;58.60;;;31.60;32.39;100507.41;6254518;23;20004;-91
2021/07/03 10:18:28;;;;;;;8.35;6.32;;;29.00;56.90;;;32.02;33.43;100504.72;6253319;23;20095;-89
2021/07/03 10:21:13;;;;;;;7.63;5.95;;;29.30;59.40;;;31.67;32.57;100501.19;6249979;23;20023;-90
2021/07/03 10:23:45;;;;;;;6.97;5.65;;;29.30;56.80;;;31.83;32.72;100501.38;6249531;23;20012;-89
2021/07/03 10:26:13;;;;;;;9.20;5.75;;;29.20;57.40;;;32.30;32.37;100505.03;6251128;23;20004;-88
2021/07/03 10:28:50;;;;;;;6.80;5.13;;;29.50;57.20;;;32.68;32.29;100498.78;6249793;23;20322;-89
2021/07/03 10:31:17;;;;;;;8.82;6.15;;;29.70;58.30;;;32.71;31.67;100494.88;6253933;23;20019;-89
2021/07/03 10:33:50;;;;;;;10.05;6.43;;;29.90;56.40;;;32.08;32.33;100496.13;6255166;23;20167;-90
2021/07/03 10:36:31;;;;;;;9.20;6.13;;;29.80;56.00;;;32.05;32.00;100492.19;6255962;23;20011;-91
2021/07/03 10:39:01;;;;;;;6.53;5.82;;;30.00;55.50;;;32.44;32.06;100491.72;6256081;23;20028;-90
2021/07/03 10:41:36;;;;;;;10.70;6.45;;;30.00;56.30;;;32.23;32.51;100483.16;6251931;23;20383;-88
2021/07/03 10:44:10;;;;;;;6.40;5.60;;;29.90;56.20;;;32.09;32.93;100477.50;6250597;23;20319;-92
2021/07/03 10:46:47;;;;;;;7.90;5.80;;;29.90;57.00;;;32.86;30.99;100486.81;6250622;23;20438;-92
2021/07/03 10:49:28;;;;;;;7.75;5.50;;;30.10;55.30;;;32.94;31.23;100478.44;6250373;23;20012;-89
2021/07/03 10:51:54;;;;;;;8.18;5.40;;;30.40;55.40;;;33.07;31.18;100478.00;6249174;23;20014;-91
2021/07/03 10:54:28;;;;;;;8.82;5.43;;;30.30;55.30;;;33.44;31.87;100481.59;6249669;23;20016;-90
2021/07/03 10:57:13;;;;;;;9.57;5.55;;;30.60;56.80;;;33.47;32.08;100476.84;6251547;23;20009;-90
2021/07/03 10:59:46;;;;;;;7.33;5.37;;;30.90;56.40;;;33.94;29.50;100478.06;6250813;23;20000;-89
2021/07/03 11:05:14;;;;;;;7.38;5.20;;;31.00;53.00;;;33.92;29.14;100475.69;6252556;23;20568;-89
2021/07/03 11:07:47;;;;;;;7.78;5.07;;;31.00;52.50;;;33.70;29.01;100467.75;6254699;23;20082;-91
2021/07/03 11:10:31;;;;;;;7.13;5.25;;;31.10;51.50;;;34.05;29.01;100461.47;6253841;23;20004;-89
2021/07/03 11:13:01;;;;;;;5.97;4.85;;;31.20;52.80;;;34.00;30.38;100456.50;6252181;23;20008;-89
2021/07/03 11:15:30;;;;;;;7.93;5.60;;;31.30;54.70;;;32.77;30.86;100458.09;6260032;23;20004;-87
2021/07/03 11:17:59;;;;;;;7.22;5.38;;;30.80;52.80;;;33.34;30.24;100462.88;6253280;23;20008;-89
2021/07/03 11:20:57;;;;;;;6.55;4.88;;;30.80;52.40;;;33.16;29.34;100448.84;6251903;23;20015;-88
2021/07/03 11:23:23;;;;;;;7.50;4.63;;;30.90;53.00;;;33.38;31.49;100441.06;6249759;23;20008;-88
2021/07/03 11:25:53;;;;;;;8.40;5.05;;;31.00;54.50;;;33.56;29.15;100447.66;6249064;23;20012;-88
2021/07/03 11:28:24;;;;;;;6.63;5.07;;;31.30;51.40;;;33.14;29.41;100434.09;6250063;23;20008;-87
2021/07/03 11:31:01;;;;;;;5.22;4.38;;;31.00;50.40;;;32.72;33.83;100432.81;6249620;23;20014;-87
2021/07/03 11:33:40;;;;;;;4.97;4.25;;;30.40;56.40;;;33.08;31.36;100430.38;6249549;23;20036;-90
2021/07/03 11:36:07;;;;;;;5.68;5.18;;;30.50;54.10;;;33.11;29.97;100426.47;6252264;23;20008;-90
2021/07/03 11:41:04;;;;;;;4.57;4.00;;;30.60;54.00;;;33.21;30.14;100422.03;6191844;23;20029;-86
2021/07/03 11:43:32;;;;;;;6.15;4.28;;;30.90;52.20;;;33.76;30.04;100418.53;6191822;23;20067;-88
2021/07/03 11:46:03;;;;;;;5.30;4.15;;;31.00;52.80;;;33.97;30.83;100413.28;6190555;23;20009;-85
2021/07/03 11:48:30;;;;;;;4.75;4.10;;;31.30;53.90;;;33.92;29.85;100406.94;6189731;23;20009;-89
2021/07/03 11:51:04;;;;;;;5.57;3.95;;;31.60;52.00;;;34.35;28.00;100404.59;6167068;23;20023;-89
2021/07/03 11:53:32;;;;;;;5.20;4.38;;;31.70;49.90;;;34.32;27.39;100399.06;6193305;23;20012;-88
2021/07/03 11:56:03;;;;;;;4.35;3.70;;;31.70;48.70;;;34.53;27.90;100403.25;6166864;23;20024;-88
2021/07/03 11:58:38;;;;;;;5.30;3.97;;;31.70;49.60;;;34.33;28.43;100395.63;6171537;23;20063;-90
2021/07/03 12:01:14;;;;;;;4.72;4.22;;;31.70;49.80;;;34.15;30.83;100396.19;6167795;23;20013;-89
2021/07/03 12:03:45;;;;;;;4.60;4.20;;;31.50;54.20;;;33.93;31.71;100396.16;6163076;23;20019;-91
2021/07/03 12:06:24;;;;;;;7.88;4.88;;;31.30;54.70;;;34.07;30.99;100400.13;6166544;23;20005;-86
2021/07/03 12:08:52;;;;;;;6.50;5.00;;;31.30;54.20;;;33.81;31.30;100398.25;6196985;23;20013;-89
2021/07/03 12:11:23;;;;;;;5.57;4.65;;;31.00;54.20;;;33.87;31.37;100386.69;6146434;23;20064;-86
2021/07/03 12:13:56;;;;;;;6.13;4.32;;;31.00;54.00;;;33.27;31.48;100393.91;6175206;23;20005;-86
2021/07/03 12:16:27;;;;;;;5.63;4.43;;;30.60;54.40;;;32.31;33.31;100386.00;6172590;23;20001;-91
2021/07/03 12:18:56;;;;;;;5.93;4.75;;;29.90;56.30;;;31.48;34.50;100388.13;6199187;23;20012;-88
2021/07/03 12:21:25;;;;;;;5.25;4.75;;;29.20;57.90;;;30.66;35.44;100380.84;6202536;23;20048;-87
2021/07/03 12:24:04;;;;;;;5.53;4.07;;;28.60;58.20;;;30.59;36.44;100381.25;6162760;23;20012;-87
2021/07/03 12:26:48;;;;;;;7.03;4.43;;;28.40;58.70;;;31.17;34.17;100380.19;6164038;23;20001;-88
2021/07/03 12:29:26;;;;;;;5.80;4.18;;;28.70;56.80;;;31.68;33.59;100370.78;6167886;23;20009;-87
2021/07/03 12:31:52;;;;;;;5.68;4.40;;;29.00;57.50;;;31.40;33.41;100374.66;6187143;23;20009;-87
2021/07/03 12:34:25;;;;;;;5.80;4.43;;;28.90;56.00;;;30.58;33.99;100373.91;6160996;23;20012;-86
2021/07/03 12:37:01;;;;;;;5.40;4.43;;;28.40;56.60;;;30.02;35.01;100371.44;6161288;23;20005;-86
2021/07/03 12:39:30;;;;;;;4.45;4.05;;;28.00;57.90;;;29.32;36.03;100371.22;6188970;23;20013;-88
2021/07/03 12:42:04;;;;;;;4.90;4.30;;;27.40;57.70;;;29.05;36.84;100360.75;6164037;23;20013;-87
2021/07/03 12:44:49;;;;;;;6.25;4.40;;;27.00;59.50;;;29.32;36.59;100358.91;6162363;23;20005;-89
2021/07/03 12:47:21;;;;;;;9.05;4.65;;;27.30;59.50;;;30.47;36.97;100362.19;6162861;23;20052;-90
2021/07/03 12:50:00;;;;;;;5.68;4.20;;;27.90;62.30;;;31.05;34.57;100360.38;6164661;23;20013;-90
2021/07/03 12:52:41;;;;;;;5.93;4.10;;;28.40;58.60;;;31.30;34.72;100368.25;6168693;23;20067;-88
2021/07/03 12:55:11;;;;;;;6.43;4.07;;;28.80;59.10;;;32.07;33.53;100370.34;6166986;23;20025;-90
2021/07/03 12:57:45;;;;;;;4.35;3.90;;;29.30;57.20;;;32.63;30.78;100362.84;6172898;23;20076;-92
2021/07/03 13:00:14;;;;;;;5.15;4.20;;;29.70;54.30;;;33.11;31.69;100357.81;6168194;23;20009;-90
2021/07/03 13:02:40;;;;;;;5.18;4.57;;;30.30;54.80;;;33.33;30.35;100354.19;6169835;23;20093;-90
2021/07/03 13:05:10;;;;;;;5.00;4.20;;;30.50;53.30;;;33.46;32.15;100350.81;6166979;23;20016;-89
2021/07/03 13:07:38;;;;;;;4.88;3.83;;;30.80;55.70;;;33.59;31.10;100348.16;6194670;23;20019;-90
2021/07/03 13:10:08;;;;;;;4.93;3.63;;;30.80;54.00;;;33.55;30.81;100345.56;6166851;23;20052;-89
2021/07/03 13:12:34;;;;;;;5.93;4.18;;;30.80;53.50;;;33.71;30.38;100350.59;6173260;23;20320;-89
2021/07/03 13:15:00;;;;;;;4.47;3.63;;;30.90;53.20;;;33.39;29.22;100338.41;6178389;23;20012;-87
2021/07/03 13:17:25;;;;;;;4.75;4.10;;;31.00;51.40;;;33.10;31.01;100338.88;6171744;23;20036;-90
2021/07/03 13:19:51;;;;;;;4.05;3.65;;;30.70;53.10;;;32.41;30.98;100340.34;6170851;23;20035;-90
2021/07/03 13:22:17;;;;;;;4.43;3.67;;;30.20;52.50;;;31.86;32.28;100347.31;6169058;23;20001;-91
2021/07/03 13:24:44;;;;;;;5.53;4.43;;;29.70;53.90;;;31.73;32.54;100338.25;6172513;23;20005;-90
2021/07/03 13:27:10;;;;;;;5.10;3.80;;;29.50;54.90;;;31.52;32.40;100345.44;6176548;23;20320;-89
2021/07/03 13:29:35;;;;;;;5.93;4.38;;;29.20;54.50;;;31.04;34.24;100339.41;6174444;23;20016;-89
2021/07/03 13:32:02;;;;;;;5.00;3.88;;;28.70;56.90;;;30.31;34.20;100326.06;6175056;23;20013;-91
2021/07/03 13:34:28;;;;;;;4.45;3.80;;;28.30;56.60;;;30.05;34.47;100336.69;6172253;23;20011;-89
2021/07/03 13:36:54;;;;;;;3.95;3.42;;;28.00;56.20;;;30.34;33.54;100321.41;6171993;23;20005;-89
2021/07/03 13:39:20;;;;;;;5.57;4.18;;;28.00;55.90;;;30.47;34.30;100315.31;6175478;23;20025;-91
2021/07/03 13:41:47;;;;;;;4.93;3.90;;;28.20;56.80;;;31.04;35.02;100321.28;6176322;23;20078;-90
2021/07/03 13:44:12;;;;;;;5.45;4.07;;;28.60;58.70;;;31.49;32.59;100325.44;6173240;23;20009;-90
2021/07/03 13:46:39;;;;;;;4.32;3.80;;;29.00;55.90;;;31.86;31.44;100320.50;6168221;23;20013;-90
2021/07/03 13:49:05;;;;;;;5.10;3.92;;;29.30;54.60;;;31.90;31.83;100318.19;6196293;23;20017;-88
2021/07/03 13:51:31;;;;;;;5.55;4.07;;;29.40;54.40;;;32.13;32.07;100308.41;6169054;23;20096;-89
2021/07/03 13:53:58;;;;;;;4.57;3.80;;;29.60;54.80;;;32.27;32.53;100315.31;6169327;23;20013;-89
2021/07/03 13:56:23;;;;;;;5.50;4.57;;;29.70;55.60;;;32.24;31.50;100310.56;6170081;23;20001;-90
2021/07/03 13:58:49;;;;;;;4.47;3.97;;;29.80;54.10;;;32.30;31.50;100314.28;6174677;23;20016;-88
2021/07/03 14:01:15;;;;;;;4.22;3.83;;;30.00;53.80;;;32.53;30.35;100312.28;6169964;23;20005;-89
2021/07/03 14:03:41;;;;;;;4.20;3.80;;;30.10;52.30;;;32.56;31.49;100308.38;6170353;23;20055;-90
2021/07/03 14:06:07;;;;;;;5.35;4.13;;;30.10;53.70;;;32.57;31.89;100296.31;6170783;23;20019;-90
2021/07/03 14:08:33;;;;;;;4.45;3.85;;;30.10;54.40;;;32.28;32.65;100300.34;6167756;23;20016;-91
2021/07/03 14:11:01;;;;;;;6.53;4.20;;;29.80;55.30;;;32.23;31.97;100292.44;6166894;23;20013;-88
2021/07/03 14:13:27;;;;;;;4.88;4.13;;;29.90;54.10;;;32.61;32.65;100293.97;6168579;23;20011;-88
2021/07/03 14:15:53;;;;;;;6.03;4.75;;;30.00;56.10;;;32.98;31.88;100298.81;6166925;23;20024;-88
2021/07/03 14:18:20;;;;;;;4.93;4.22;;;30.20;55.20;;;32.73;31.20;100300.59;6166517;23;20098;-90
2021/07/03 14:20:45;;;;;;;5.13;4.60;;;30.10;54.20;;;31.92;33.18;100300.34;6164516;23;20009;-89
2021/07/03 14:23:12;;;;;;;5.65;4.82;;;29.60;55.40;;;31.46;33.67;100292.59;6166854;23;20024;-91
2021/07/03 14:25:38;;;;;;;6.20;4.63;;;29.20;56.20;;;31.13;34.61;100295.16;6191587;23;20056;-89
2021/07/03 14:28:04;;;;;;;5.70;4.60;;;28.90;57.60;;;30.84;34.84;100301.88;6163587;23;20009;-90
2021/07/03 14:30:30;;;;;;;5.90;4.40;;;28.60;57.20;;;30.62;34.38;100295.88;6168256;23;20009;-90
2021/07/03 14:32:56;;;;;;;4.60;4.03;;;28.40;57.00;;;30.32;34.42;100289.41;6166639;23;20039;-90
2021/07/03 14:35:22;;;;;;;6.50;4.60;;;28.20;56.50;;;30.31;35.90;100291.50;6166309;23;20033;-90
2021/07/03 14:37:48;;;;;;;5.57;4.00;;;28.20;59.90;;;30.85;35.44;100286.19;6191407;23;20005;-91
2021/07/03 14:40:14;;;;;;;5.28;4.22;;;28.50;58.60;;;31.22;35.07;100289.22;6169434;23;20013;-90
2021/07/03 14:42:40;;;;;;;4.60;3.85;;;28.70;58.80;;;30.97;33.64;100284.25;6168726;23;20009;-88
2021/07/03 14:45:07;;;;;;;5.25;4.68;;;28.60;56.00;;;30.66;35.50;100285.72;6167277;23;20009;-90
2021/07/03 14:47:33;;;;;;;6.00;4.20;;;28.30;58.20;;;30.34;35.45;100281.06;6170607;23;20048;-91
2021/07/03 14:49:59;;;;;;;6.65;4.65;;;28.10;58.30;;;29.83;36.23;100272.97;6168928;23;20041;-90
2021/07/03 14:52:25;;;;;;;5.20;4.70;;;27.70;59.00;;;29.52;36.95;100279.25;6192722;23;20040;-92
2021/07/03 14:54:51;;;;;;;4.78;4.00;;;27.40;60.00;;;29.50;37.33;100284.72;6169656;23;20012;-90
2021/07/03 14:57:17;;;;;;;5.03;4.45;;;27.30;61.30;;;29.47;38.44;100285.72;6166049;23;20053;-90
2021/07/03 14:59:42;;;;;;;6.05;4.97;;;27.30;62.10;;;29.99;37.11;100281.06;6164972;23;20495;-87
2021/07/03 15:02:08;;;;;;;8.27;4.90;;;27.60;61.50;;;30.22;35.32;100280.09;6169549;23;20359;-90
2021/07/03 15:04:34;;;;;;;6.72;4.72;;;27.90;59.20;;;30.20;36.44;100279.81;6168771;23;20012;-90
2021/07/03 15:07:00;;;;;;;6.00;4.55;;;27.90;59.80;;;30.05;36.92;100279.09;6166583;23;20009;-90
2021/07/03 15:09:26;;;;;;;5.40;4.85;;;27.80;60.60;;;29.81;37.86;100269.78;6167014;23;20017;-90
2021/07/03 15:11:52;;;;;;;6.88;4.63;;;27.70;62.40;;;29.73;37.05;100262.88;6168110;23;20033;-89
2021/07/03 15:14:18;;;;;;;7.35;5.57;;;27.50;60.40;;;29.53;37.76;100263.59;6169531;23;20009;-91
2021/07/03 15:16:44;;;;;;;5.60;5.00;;;27.30;61.30;;;29.36;37.87;100255.97;6169003;23;20008;-89
2021/07/03 15:19:10;;;;;;;5.68;4.88;;;27.20;62.50;;;29.09;39.23;100257.81;6166939;23;20017;-89
2021/07/03 15:21:36;;;;;;;6.28;5.18;;;27.00;63.20;;;28.95;37.71;100257.81;6165652;23;20104;-90
2021/07/03 15:24:02;;;;;;;7.53;4.68;;;27.00;60.70;;;29.16;36.91;100268.13;6192484;23;20005;-90
2021/07/03 15:26:28;;;;;;;4.85;4.35;;;27.00;59.90;;;29.32;38.22;100261.13;6190753;23;20443;-91
2021/07/03 15:28:54;;;;;;;5.70;4.55;;;27.10;64.00;;;29.33;38.94;100260.63;6190992;23;20005;-89
2021/07/03 15:31:21;;;;;;;5.70;5.10;;;27.10;63.90;;;29.22;38.27;100258.31;6165054;23;20463;-90
2021/07/03 15:33:48;;;;;;;6.43;4.55;;;27.00;63.00;;;29.11;39.51;100254.47;6166812;23;20008;-89
2021/07/03 15:36:13;;;;;;;6.80;4.82;;;26.90;65.30;;;29.09;39.08;100259.91;6177381;23;20008;-90
2021/07/03 15:38:39;;;;;;;6.32;4.95;;;26.80;63.80;;;29.10;39.37;100261.47;6204631;23;20387;-87
2021/07/03 15:41:07;;;;;;;7.40;4.93;;;26.90;64.60;;;29.12;40.23;100264.69;6172909;23;20013;-89
2021/07/03 15:43:34;;;;;;;6.82;5.32;;;26.90;65.70;;;29.16;38.81;100262.38;6163381;23;20012;-90
2021/07/03 15:46:01;;;;;;;6.28;4.97;;;26.90;64.00;;;29.14;38.49;100256.34;6163113;23;20092;-88
2021/07/03 15:48:27;;;;;;;6.57;5.25;;;27.00;63.40;;;29.06;39.03;100247.31;6189981;23;20518;-90
2021/07/03 15:50:53;;;;;;;10.10;5.68;;;26.90;63.50;;;28.94;39.13;100250.47;6191928;23;20009;-90
2021/07/03 15:53:20;;;;;;;7.78;5.40;;;26.80;63.70;;;28.78;39.67;100249.66;6163965;23;20012;-92
2021/07/03 15:55:46;;;;;;;6.43;5.43;;;26.70;64.60;;;28.61;40.04;100253.44;6162281;23;20094;-90
2021/07/03 15:58:13;;;;;;;7.60;5.40;;;26.60;65.10;;;28.47;40.23;100255.03;6162234;23;20000;-90
2021/07/03 16:00:39;;;;;;;5.30;4.80;;;26.50;65.70;;;28.35;41.70;100247.47;6188439;23;20009;-89
2021/07/03 16:03:05;;;;;;;7.97;6.07;;;26.40;68.00;;;28.31;40.28;100251.78;6188359;23;20012;-88
2021/07/03 16:05:31;;;;;;;7.35;6.15;;;26.30;65.90;;;28.15;40.98;100239.47;6162220;23;20069;-91
2021/07/03 16:07:57;;;;;;;6.47;5.10;;;26.20;67.50;;;28.18;41.06;100234.81;6162084;23;20013;-89
2021/07/03 16:10:24;;;;;;;5.93;5.22;;;26.20;67.10;;;28.11;40.73;100235.19;6162731;23;20540;-89
2021/07/03 16:12:55;;;;;;;7.03;5.70;;;26.10;66.20;;;28.11;41.59;100226.56;6163015;23;20079;-91
2021/07/03 16:15:21;;;;;;;7.70;5.85;;;26.10;67.50;;;28.17;41.10;100236.09;6163466;23;20040;-90
2021/07/03 16:17:49;;;;;;;7.45;5.88;;;26.20;66.80;;;28.20;41.55;100233.03;6163113;23;20358;-89
2021/07/03 16:20:17;;;;;;;7.10;5.70;;;26.10;68.50;;;28.17;41.09;100230.34;6161470;23;20435;-88
2021/07/03 16:22:44;;;;;;;7.35;5.72;;;26.20;67.60;;;28.16;40.81;100217.25;6162073;23;20013;-92
2021/07/03 16:25:12;;;;;;;6.85;5.53;;;26.20;67.50;;;28.24;41.17;100224.25;6161593;23;20040;-92
2021/07/03 16:27:40;;;;;;;9.30;5.63;;;26.20;67.80;;;28.28;41.30;100219.13;6162162;23;20009;-89
2021/07/03 16:30:07;;;;;;;7.25;6.30;;;26.20;67.60;;;28.23;41.28;100225.50;6188008;23;20347;-89
2021/07/03 16:32:33;;;;;;;5.95;5.35;;;26.20;67.90;;;28.18;40.70;100226.19;6163238;23;20005;-89
2021/07/03 16:35:01;;;;;;;6.03;5.18;;;26.10;66.30;;;28.16;39.96;100223.00;6163687;23;20005;-89
2021/07/03 16:37:28;;;;;;;5.97;5.38;;;26.10;66.10;;;28.09;41.04;100227.06;6190596;23;20028;-89
2021/07/03 16:39:56;;;;;;;6.05;5.45;;;26.00;67.60;;;28.01;41.46;100219.25;6189155;23;20004;-90
2021/07/03 16:42:22;;;;;;;10.27;6.93;;;25.90;68.10;;;27.88;41.84;100210.91;6165683;23;20099;-89
2021/07/03 16:44:47;;;;;;;7.15;6.25;;;25.90;69.40;;;27.66;42.40;100208.31;6171187;23;20061;-89
2021/07/03 16:47:13;;;;;;;7.78;5.75;;;25.80;69.90;;;27.46;42.39;100215.91;6175106;23;20005;-90
2021/07/03 16:49:39;;;;;;;8.27;6.07;;;25.60;69.80;;;27.31;42.46;100214.97;6174495;23;20051;-90
2021/07/03 16:52:06;;;;;;;6.70;6.07;;;25.50;69.70;;;27.22;42.82;100215.81;6198715;23;20012;-90
2021/07/03 16:54:32;;;;;;;7.68;6.15;;;25.40;70.20;;;27.13;43.49;100212.97;6201790;23;20001;-88
2021/07/03 16:56:58;;;;;;;8.23;6.20;;;25.30;72.50;;;27.04;44.03;100219.50;6173959;23;20016;-89
2021/07/03 16:59:27;;;;;;;6.55;5.85;;;25.20;72.80;;;26.93;43.83;100219.22;6176609;23;20012;-91
2021/07/03 17:01:53;;;;;;;7.53;6.50;;;25.10;71.90;;;26.82;43.73;100221.78;6175568;23;20012;-90
2021/07/03 17:04:19;;;;;;;6.70;5.07;;;25.00;72.40;;;26.65;44.88;100215.56;6201957;23;20379;-90
2021/07/03 17:06:45;;;;;;;6.13;4.97;;;24.90;75.70;;;26.54;45.64;100220.19;6174295;23;20037;-90
2021/07/03 17:09:11;;;;;;;8.18;6.45;;;24.80;77.10;;;26.46;45.99;100228.31;6197482;23;20072;-89
2021/07/03 17:11:37;;;;;;;8.23;5.80;;;24.70;78.50;;;26.31;45.78;100229.41;6174569;23;20008;-90
2021/07/03 17:14:03;;;;;;;7.93;5.70;;;24.60;77.50;;;26.25;46.36;100234.19;6174094;23;20462;-89
2021/07/03 17:16:29;;;;;;;7.28;5.72;;;24.50;79.20;;;26.06;46.78;100231.28;6171230;23;20064;-89
2021/07/03 17:18:55;;;;;;;6.72;4.70;;;24.40;80.20;;;25.96;46.94;100228.88;6171806;23;20009;-89
2021/07/03 17:21:21;;;;;;;7.47;5.15;;;24.30;80.10;;;25.87;47.36;100226.00;6170109;23;20390;-89
2021/07/03 17:23:47;;;;;;;6.15;4.85;;;24.30;81.40;;;25.78;47.54;100232.50;6170307;23;20082;-89
2021/07/03 17:26:13;;;;;;;7.60;5.55;;;24.20;82.60;;;25.64;48.60;100238.78;6170306;23;20009;-89
2021/07/03 17:28:39;;;;;;;8.95;6.30;;;24.10;85.80;;;25.57;49.32;100239.88;6175309;23;20048;-89
2021/07/03 17:31:05;;;;;;;6.15;5.47;;;24.00;88.80;;;25.43;49.33;100234.69;6171140;23;20447;-91
2021/07/03 17:33:31;;;;;;;8.95;5.00;;;23.80;90.40;;;25.34;49.22;100236.72;6169060;23;20061;-91
2021/07/03 17:35:57;;;;;;;5.32;4.30;;;23.80;91.20;;;25.31;49.31;100243.38;6173647;23;20482;-90
2021/07/03 17:38:25;;;;;;;6.22;4.45;;;23.70;92.20;;;25.17;49.74;100248.38;6172673;23;20009;-91
2021/07/03 17:40:51;;;;;;;5.60;4.22;;;23.50;93.60;;;25.08;49.54;100236.09;6172953;23;20009;-89
2021/07/03 17:43:18;;;;;;;5.68;4.15;;;23.50;94.60;;;25.02;49.34;100243.69;6174368;23;20035;-88
2021/07/03 17:45:44;;;;;;;5.53;3.70;;;23.40;94.80;;;24.95;49.84;100233.34;6170806;23;20013;-90
2021/07/03 17:48:10;;;;;;;5.22;3.42;;;23.40;95.80;;;24.88;49.22;100233.63;6171535;23;20031;-88
2021/07/03 17:50:36;;;;;;;4.03;3.15;;;23.40;95.60;;;24.82;49.55;100241.19;6170810;23;20043;-90
2021/07/03 17:53:03;;;;;;;4.93;3.42;;;23.20;96.10;;;24.75;49.77;100237.78;6172184;23;20009;-89
2021/07/03 17:55:29;;;;;;;3.60;3.00;;;23.10;96.80;;;24.67;49.90;100240.09;6169831;23;20068;-86
2021/07/03 17:57:55;;;;;;;4.30;3.10;;;23.10;97.20;;;24.64;50.03;100243.88;6170939;23;20025;-87
2021/07/03 18:00:23;;;;;;;4.43;3.10;;;23.10;98.30;;;24.56;50.53;100242.56;6171817;23;20063;-88
2021/07/03 18:02:50;;;;;;;4.25;3.00;;;23.00;99.20;;;24.48;51.08;100241.22;6175449;23;20075;-89
2021/07/03 18:05:16;;;;;;;5.10;3.15;;;22.90;99.90;;;24.42;51.58;100237.34;6172991;23;20350;-91
2021/07/03 18:07:42;;;;;;;5.25;3.80;;;22.80;99.90;;;24.35;52.27;100232.69;6168320;23;20008;-91
2021/07/03 18:10:13;;;;;;;4.00;3.30;;;22.80;99.90;;;24.31;53.01;100240.59;6166891;23;20024;-88
2021/07/03 18:12:39;;;;;;;3.60;2.97;;;22.70;99.90;;;24.24;52.70;100240.06;6163719;23;20059;-89
2021/07/03 18:15:07;;;;;;;4.55;2.97;;;22.60;99.90;;;24.14;52.44;100231.38;6167786;23;20005;-89
2021/07/03 18:17:33;;;;;;;5.15;3.47;;;22.60;99.90;;;24.10;52.81;100239.28;6164434;23;20084;-89
2021/07/03 18:19:59;;;;;;;5.88;3.58;;;22.60;99.90;;;24.05;51.85;100241.88;6163770;23;20044;-88
2021/07/03 18:22:26;;;;;;;5.93;3.58;;;22.50;99.90;;;24.04;51.60;100237.47;6163888;23;20032;-88
2021/07/03 18:24:53;;;;;;;5.47;3.63;;;22.50;99.90;;;24.07;51.99;100240.19;6163576;23;20039;-88
2021/07/03 18:27:20;;;;;;;6.50;3.80;;;22.50;99.90;;;24.03;51.97;100235.84;6164126;23;20005;-89
2021/07/03 18:29:47;;;;;;;6.78;3.67;;;22.40;99.90;;;23.98;52.39;100228.69;6165128;23;20005;-89
2021/07/03 18:32:14;;;;;;;5.78;3.65;;;22.40;99.90;;;24.02;52.43;100234.25;6139604;23;20009;-89
2021/07/03 18:34:40;;;;;;;8.07;3.70;;;22.40;99.90;;;23.95;53.18;100231.66;6164262;23;20012;-88
2021/07/03 18:37:07;;;;;;;4.97;3.63;;;22.40;99.90;;;23.90;53.38;100235.88;6190152;23;20009;-89
2021/07/03 18:39:36;;;;;;;5.45;3.60;;;22.30;99.90;;;23.86;53.55;100229.50;6189035;23;20009;-87
2021/07/03 18:42:03;;;;;;;6.22;3.58;;;22.30;99.90;;;23.83;53.46;100227.56;6164429;23;20092;-88
2021/07/03 18:44:30;;;;;;;5.75;3.45;;;22.20;99.90;;;23.79;54.10;100229.72;6156495;23;20029;-86
2021/07/03 18:46:56;;;;;;;6.07;3.72;;;22.20;99.90;;;23.77;53.88;100232.25;6157980;23;20379;-86
2021/07/03 18:49:22;;;;;;;5.32;3.28;;;22.20;99.90;;;23.66;55.10;100225.31;6157209;23;20001;-87
2021/07/03 18:51:49;;;;;;;6.07;3.15;;;22.20;99.90;;;23.64;54.35;100222.91;6157466;23;20013;-89
2021/07/03 18:54:15;;;;;;;5.35;3.78;;;22.10;99.90;;;23.60;54.96;100225.88;6161022;23;20391;-85
2021/07/03 18:56:42;;;;;;;4.38;3.10;;;22.00;99.90;;;23.44;55.08;100226.00;6130108;23;20064;-88
2021/07/03 18:59:09;;;;;;;4.78;3.13;;;22.00;99.90;;;23.51;54.17;100227.81;6131405;23;20006;-85
2021/07/03 19:01:35;;;;;;;3.38;2.58;;;22.00;99.90;;;23.43;55.09;100226.47;6133532;23;20084;-86
2021/07/03 19:04:01;;;;;;;3.88;2.90;;;21.90;99.90;;;23.37;55.57;100231.91;6131997;23;20009;-86
2021/07/03 19:06:27;;;;;;;3.17;2.50;;;21.90;99.90;;;23.34;55.40;100229.94;6128425;23;20025;-85
2021/07/03 19:08:53;;;;;;;3.05;2.63;;;21.90;99.90;;;23.28;55.45;100220.38;6145296;23;20032;-86
2021/07/03 19:11:19;;;;;;;5.38;2.80;;;21.90;99.90;;;23.26;56.65;100225.75;6142648;23;20388;-85
2021/07/03 19:13:45;;;;;;;4.53;2.88;;;21.80;99.90;;;23.14;61.11;100222.88;6127473;23;20009;-87
2021/07/03 19:16:12;;;;;;;5.20;3.50;;;21.70;99.90;;;23.03;63.02;100228.91;6132113;23;20002;-88
2021/07/03 19:18:39;;;;;;;4.20;3.38;;;21.60;99.90;;;22.75;64.16;100239.09;6133860;23;20005;-86
2021/07/03 19:21:06;;;;;;;5.30;4.15;;;21.30;99.90;;;22.49;63.16;100240.22;6152613;23;20055;-90
2021/07/03 19:23:34;;;;;;;4.97;4.13;;;21.10;99.90;;;22.43;63.31;100242.84;6129615;23;20021;-86
2021/07/03 19:26:05;;;;;;;4.95;4.40;;;21.00;99.90;;;22.36;65.61;100245.88;6128986;23;20010;-85
2021/07/03 19:28:33;;;;;;;4.80;4.30;;;20.90;99.90;;;22.30;64.87;100244.81;6128322;23;20084;-85
2021/07/03 19:30:59;;;;;;;4.43;4.03;;;20.80;99.90;;;22.23;65.90;100255.56;6127961;23;20411;-86
2021/07/03 19:33:25;;;;;;;5.45;4.25;;;20.70;99.90;;;22.12;67.13;100246.53;6132069;23;20332;-89